createdAt,value
2017-11-10T00:04:31.898Z,87.30
2017-11-10T00:09:32.951Z,88.00
2017-11-10T00:14:33.978Z,88.20
2017-11-10T00:19:35.072Z,88.70
2017-11-10T00:24:36.142Z,88.70
2017-11-10T00:29:37.217Z,89.30
2017-11-10T00:34:38.271Z,89.40
2017-11-10T00:39:39.306Z,89.80
2017-11-10T00:44:40.330Z,90.00
2017-11-10T00:49:41.456Z,90.00
2017-11-10T00:54:42.514Z,90.10
2017-11-10T00:59:43.597Z,90.00
2017-11-10T01:04:45.417Z,89.00
2017-11-10T01:09:46.626Z,88.90
2017-11-10T01:14:51.430Z,87.30
2017-11-10T01:19:53.235Z,86.40
2017-11-10T01:25:01.250Z,86.40
2017-11-10T01:30:02.315Z,87.00
2017-11-10T01:35:03.385Z,85.70
2017-11-10T01:40:05.214Z,85.40
2017-11-10T01:45:06.298Z,85.30
2017-11-10T01:50:07.359Z,85.00
2017-11-10T01:55:08.405Z,85.30
2017-11-10T02:00:09.478Z,86.00
2017-11-10T02:05:10.586Z,86.10
2017-11-10T02:10:11.666Z,86.30
2017-11-10T02:15:12.742Z,86.70
2017-11-10T02:20:13.797Z,86.70
2017-11-10T02:25:14.879Z,87.30
2017-11-10T02:30:16.665Z,87.20
2017-11-10T02:35:18.531Z,87.80
2017-11-10T02:40:20.586Z,87.80
2017-11-10T02:45:21.672Z,87.40
2017-11-10T02:50:23.538Z,88.00
2017-11-10T02:55:24.722Z,88.00
2017-11-10T03:00:26.522Z,87.40
2017-11-10T03:05:27.639Z,87.40
2017-11-10T03:10:29.487Z,88.70
2017-11-10T03:15:31.422Z,87.60
2017-11-10T03:20:32.565Z,87.60
2017-11-10T03:25:34.461Z,87.80
2017-11-10T03:30:35.532Z,87.70
2017-11-10T03:35:36.630Z,87.40
2017-11-10T03:40:37.678Z,87.60
2017-11-10T03:45:39.518Z,87.20
2017-11-10T03:50:40.603Z,87.20
2017-11-10T03:55:41.702Z,86.80
2017-11-10T04:00:43.447Z,87.00
2017-11-10T04:05:44.522Z,86.40
2017-11-10T04:10:46.141Z,86.20
2017-11-10T04:15:47.238Z,85.80
2017-11-10T04:20:48.330Z,85.40
2017-11-10T04:25:49.406Z,85.70
2017-11-10T04:30:50.489Z,86.40
2017-11-10T04:35:51.583Z,86.70
2017-11-10T04:40:52.663Z,86.80
2017-11-10T04:45:54.498Z,86.10
2017-11-10T04:50:55.558Z,86.10
2017-11-10T04:55:56.641Z,86.40
2017-11-10T05:00:57.724Z,86.00
2017-11-10T05:05:59.547Z,86.00
2017-11-10T05:11:00.625Z,86.00
2017-11-10T05:16:01.746Z,85.00
2017-11-10T05:21:02.838Z,85.40
2017-11-10T05:26:03.931Z,85.20
2017-11-10T05:31:05.779Z,85.50
2017-11-10T05:36:06.857Z,85.50
2017-11-10T05:41:07.982Z,85.70
2017-11-10T05:46:09.091Z,85.40
2017-11-10T05:51:10.916Z,85.00
2017-11-10T05:56:12.022Z,85.00
2017-11-10T06:01:13.818Z,85.10
2017-11-10T06:06:14.886Z,85.10
2017-11-10T06:11:15.962Z,84.50
2017-11-10T06:16:17.050Z,84.40
2017-11-10T06:21:18.151Z,84.70
2017-11-10T06:26:19.237Z,84.30
2017-11-10T06:31:20.335Z,84.10
2017-11-10T06:36:21.390Z,83.20
2017-11-10T06:41:22.479Z,83.20
2017-11-10T06:46:23.753Z,82.50
2017-11-10T06:51:24.839Z,81.60
2017-11-10T06:56:26.076Z,80.00
2017-11-10T07:01:27.124Z,79.10
2017-11-10T07:06:28.219Z,78.10
2017-11-10T07:11:29.288Z,78.30
2017-11-10T07:16:30.367Z,78.30
2017-11-10T07:21:32.183Z,78.00
2017-11-10T07:26:33.251Z,77.90
2017-11-10T07:31:34.320Z,76.10
2017-11-10T07:36:35.387Z,76.30
2017-11-10T07:41:36.455Z,76.60
2017-11-10T07:46:38.434Z,74.50
2017-11-10T07:51:39.503Z,74.60
2017-11-10T07:56:40.575Z,74.10
2017-11-10T08:01:41.622Z,72.40
2017-11-10T08:06:42.697Z,71.10
2017-11-10T08:11:44.519Z,68.30
2017-11-10T08:16:45.583Z,68.30
2017-11-10T08:21:46.640Z,65.80
2017-11-10T08:26:47.702Z,63.90
2017-11-10T08:31:48.778Z,62.90
2017-11-10T08:36:49.813Z,62.10
2017-11-10T08:41:51.035Z,62.10
2017-11-10T08:46:52.844Z,64.90
2017-11-10T08:51:53.889Z,64.80
2017-11-10T08:56:54.951Z,64.80
2017-11-10T09:01:56.031Z,63.10
2017-11-10T09:06:57.102Z,62.10
2017-11-10T09:11:58.170Z,62.60
2017-11-10T09:16:59.230Z,60.80
2017-11-10T09:22:01.335Z,61.50
2017-11-10T09:27:05.108Z,59.80
2017-11-10T09:32:06.196Z,59.80
2017-11-10T09:53:08.922Z,58.90
2017-11-10T09:58:16.751Z,59.70
2017-11-10T10:03:18.875Z,59.70
2017-11-10T10:08:24.031Z,59.40
2017-11-10T10:13:25.110Z,59.50
2017-11-10T10:34:29.001Z,54.60
2017-11-10T10:39:30.074Z,54.90
2017-11-10T10:44:31.134Z,56.80
2017-11-10T10:49:32.207Z,57.20
2017-11-10T10:54:33.283Z,58.50
2017-11-10T10:59:35.079Z,58.20
2017-11-10T11:04:37.145Z,58.30
2017-11-10T11:09:38.402Z,58.20
2017-11-10T11:14:39.453Z,59.00
2017-11-10T11:19:40.522Z,57.70
2017-11-10T11:24:41.590Z,57.30
2017-11-10T11:29:42.667Z,56.90
2017-11-10T11:34:43.724Z,57.20
2017-11-10T11:39:44.790Z,55.80
2017-11-10T11:44:45.834Z,56.60
2017-11-10T11:49:46.931Z,55.70
2017-11-10T11:54:48.056Z,57.10
2017-11-10T11:59:49.126Z,56.60
2017-11-10T12:04:50.205Z,56.80
2017-11-10T12:09:51.286Z,56.10
2017-11-10T12:14:52.379Z,55.40
2017-11-10T12:19:53.462Z,55.00
2017-11-10T12:24:54.540Z,55.10
2017-11-10T12:29:55.626Z,55.50
2017-11-10T12:34:56.730Z,56.90
2017-11-10T12:39:57.814Z,57.40
2017-11-10T12:44:58.918Z,58.60
2017-11-10T12:50:00.754Z,63.30
2017-11-10T12:55:01.831Z,62.50
2017-11-10T13:00:02.908Z,62.80
2017-11-10T13:05:04.704Z,66.30
2017-11-10T13:10:05.775Z,66.00
2017-11-10T13:15:06.853Z,67.40
2017-11-10T13:20:07.910Z,69.80
2017-11-10T13:25:09.005Z,71.10
2017-11-10T13:30:10.078Z,71.60
2017-11-10T13:35:11.869Z,72.40
2017-11-10T13:40:12.978Z,72.30
2017-11-10T13:45:15.055Z,71.70
2017-11-10T13:50:16.095Z,71.70
2017-11-10T13:55:17.127Z,73.50
2017-11-10T14:00:18.945Z,74.80
2017-11-10T14:05:20.031Z,74.80
2017-11-10T14:10:21.084Z,73.20
2017-11-10T14:15:22.139Z,72.80
2017-11-10T14:20:23.212Z,73.50
2017-11-10T14:25:24.298Z,75.50
2017-11-10T14:30:25.330Z,78.10
2017-11-10T14:35:26.373Z,77.30
2017-11-10T14:40:27.443Z,76.80
2017-11-10T14:56:38.059Z,79.00
2017-11-10T15:01:39.123Z,80.40
2017-11-10T15:06:40.169Z,80.80
2017-11-10T15:11:41.222Z,81.20
2017-11-10T15:16:42.270Z,80.90
2017-11-10T15:21:44.075Z,80.60
2017-11-10T15:26:45.121Z,80.60
2017-11-10T15:31:46.191Z,80.20
2017-11-10T15:36:47.277Z,80.00
2017-11-10T15:41:48.337Z,79.60
2017-11-10T15:46:49.398Z,80.20
2017-11-10T15:51:50.469Z,80.30
2017-11-10T15:56:51.650Z,79.50
2017-11-10T16:01:53.497Z,79.50
2017-11-10T16:06:54.554Z,79.50
2017-11-10T16:11:55.632Z,79.70
2017-11-10T16:16:56.714Z,79.90
2017-11-10T16:21:57.855Z,78.90
2017-11-10T16:27:04.458Z,78.70
2017-11-10T16:32:05.591Z,78.60
2017-11-10T16:37:06.665Z,78.70
2017-11-10T16:42:08.470Z,78.70
2017-11-10T16:47:09.534Z,78.70
2017-11-10T16:52:12.687Z,78.60
2017-11-10T16:57:13.751Z,79.20
2017-11-10T17:02:15.670Z,79.80
2017-11-10T17:07:16.778Z,80.50
2017-11-10T17:12:17.843Z,79.50
2017-11-10T17:17:19.724Z,79.30
2017-11-10T17:22:20.783Z,79.30
2017-11-10T17:27:21.991Z,78.60
2017-11-10T17:32:23.067Z,78.90
2017-11-10T17:37:24.135Z,79.30
2017-11-10T17:42:25.190Z,79.10
2017-11-10T17:47:26.290Z,78.90
2017-11-10T17:52:28.447Z,79.80
2017-11-10T17:57:29.534Z,79.80
2017-11-10T18:02:31.412Z,81.20
2017-11-10T18:07:33.255Z,83.10
2017-11-10T18:12:34.313Z,83.00
2017-11-10T18:17:35.355Z,83.60
2017-11-10T18:22:36.442Z,84.50
2017-11-10T18:27:37.513Z,85.10
2017-11-10T18:32:39.434Z,85.10
2017-11-10T18:37:40.522Z,85.10
2017-11-10T18:42:41.618Z,85.30
2017-11-10T18:47:43.445Z,84.70
2017-11-10T18:52:44.558Z,84.80
2017-11-10T18:57:46.422Z,85.40
2017-11-10T19:02:47.502Z,85.40
2017-11-10T19:07:48.558Z,86.00
2017-11-10T19:12:49.594Z,86.10
2017-11-10T19:17:50.638Z,86.20
2017-11-10T19:22:51.697Z,85.30
2017-11-10T19:27:52.750Z,84.80
2017-11-10T19:32:53.805Z,84.70
2017-11-10T19:37:54.966Z,84.40
2017-11-10T19:42:56.038Z,83.00
2017-11-10T19:47:57.082Z,83.40
2017-11-10T19:52:58.196Z,84.60
2017-11-10T19:57:59.296Z,85.30
2017-11-10T20:03:00.426Z,85.60
2017-11-10T20:08:01.797Z,85.50
2017-11-10T20:13:02.918Z,84.80
2017-11-10T20:18:04.049Z,84.70
2017-11-10T20:23:05.123Z,84.40
2017-11-10T20:28:06.963Z,84.20
2017-11-10T20:33:08.025Z,84.00
2017-11-10T20:38:09.126Z,84.40
2017-11-10T20:43:10.930Z,84.40
2017-11-10T20:48:12.018Z,84.40
2017-11-10T20:53:13.101Z,84.60
2017-11-10T20:58:14.199Z,84.80
2017-11-10T21:03:15.986Z,85.30
2017-11-10T21:08:17.129Z,85.20
2017-11-10T21:13:18.910Z,86.30
2017-11-10T21:18:19.974Z,85.60
2017-11-10T21:23:21.078Z,86.30
2017-11-10T21:28:22.158Z,87.40
2017-11-10T21:33:23.979Z,88.40
2017-11-10T21:38:25.053Z,88.30
2017-11-10T21:43:26.127Z,89.10
2017-11-10T21:48:27.249Z,89.20
2017-11-10T21:53:28.323Z,89.60
2017-11-10T21:58:29.443Z,89.90
2017-11-10T22:03:31.242Z,90.50
2017-11-10T22:08:32.325Z,90.50
2017-11-10T22:13:33.390Z,90.30
2017-11-10T22:18:34.486Z,90.40
2017-11-10T22:23:36.355Z,90.40
2017-11-10T22:28:38.163Z,90.50
2017-11-10T22:33:39.246Z,90.50
2017-11-10T22:38:40.310Z,90.40
2017-11-10T22:43:41.429Z,90.60
2017-11-10T22:48:42.509Z,90.90
2017-11-10T22:53:43.554Z,90.90
2017-11-10T22:58:44.659Z,91.00
2017-11-10T23:03:45.733Z,91.50
2017-11-10T23:08:46.774Z,91.70
2017-11-10T23:13:47.837Z,91.00
2017-11-10T23:18:48.891Z,90.30
2017-11-10T23:23:49.942Z,87.70
2017-11-10T23:28:51.011Z,84.10
2017-11-10T23:33:52.057Z,84.00
2017-11-10T23:38:53.641Z,84.20
2017-11-10T23:43:54.746Z,83.70
2017-11-10T23:48:55.815Z,84.70
2017-11-10T23:53:56.882Z,84.90
2017-11-10T23:58:57.941Z,85.00
